createdAt,value
2023-04-22T00:02:24.444Z,100.00
2023-04-22T00:04:52.380Z,100.00
2023-04-22T00:07:21.035Z,100.00
2023-04-22T00:09:48.868Z,100.00
2023-04-22T00:12:16.659Z,100.00
2023-04-22T00:14:44.367Z,100.00
2023-04-22T00:17:12.387Z,100.00
2023-04-22T00:19:43.909Z,100.00
2023-04-22T00:22:11.630Z,100.00
2023-04-22T00:24:39.377Z,100.00
2023-04-22T00:27:08.143Z,100.00
2023-04-22T00:29:36.228Z,100.00
2023-04-22T00:32:04.311Z,100.00
2023-04-22T00:34:32.041Z,100.00
2023-04-22T00:37:01.374Z,100.00
2023-04-22T00:39:29.265Z,100.00
2023-04-22T00:41:57.284Z,100.00
2023-04-22T00:44:26.432Z,100.00
2023-04-22T00:46:54.392Z,100.00
2023-04-22T00:49:23.317Z,100.00
2023-04-22T00:51:51.100Z,100.00
2023-04-22T00:54:20.332Z,100.00
2023-04-22T00:56:48.228Z,100.00
2023-04-22T00:59:16.299Z,100.00
2023-04-22T01:01:44.525Z,100.00
2023-04-22T01:04:14.388Z,100.00
2023-04-22T01:06:44.338Z,100.00
2023-04-22T01:09:12.287Z,100.00
2023-04-22T01:11:41.826Z,100.00
2023-04-22T01:14:09.655Z,100.00
2023-04-22T01:16:39.449Z,100.00
2023-04-22T01:19:08.227Z,100.00
2023-04-22T01:21:37.595Z,100.00
2023-04-22T01:24:07.679Z,100.00
2023-04-22T01:26:35.725Z,100.00
2023-04-22T01:29:04.239Z,100.00
2023-04-22T01:31:32.398Z,100.00
2023-04-22T01:34:00.657Z,100.00
2023-04-22T01:36:29.032Z,100.00
2023-04-22T01:38:57.749Z,100.00
2023-04-22T01:41:27.043Z,100.00
2023-04-22T01:43:55.251Z,100.00
2023-04-22T01:46:23.062Z,100.00
2023-04-22T01:48:51.838Z,100.00
2023-04-22T01:51:21.372Z,100.00
2023-04-22T01:53:50.330Z,100.00
2023-04-22T01:56:18.558Z,100.00
2023-04-22T01:58:47.742Z,100.00
2023-04-22T02:01:15.807Z,100.00
2023-04-22T02:03:43.650Z,100.00
2023-04-22T02:06:11.540Z,100.00
2023-04-22T02:08:39.378Z,100.00
2023-04-22T02:11:07.335Z,100.00
2023-04-22T02:13:39.382Z,100.00
2023-04-22T02:16:09.499Z,100.00
2023-04-22T02:18:37.838Z,100.00
2023-04-22T02:21:05.652Z,100.00
2023-04-22T02:23:33.602Z,100.00
2023-04-22T02:26:01.676Z,100.00
2023-04-22T02:28:29.420Z,100.00
2023-04-22T02:30:57.261Z,100.00
2023-04-22T02:33:26.559Z,100.00
2023-04-22T02:35:54.365Z,100.00
2023-04-22T02:38:22.138Z,100.00
2023-04-22T02:40:49.868Z,100.00
2023-04-22T02:43:17.593Z,100.00
2023-04-22T02:45:45.395Z,100.00
2023-04-22T02:48:13.141Z,100.00
2023-04-22T02:50:42.366Z,100.00
2023-04-22T02:53:10.817Z,100.00
2023-04-22T02:55:40.223Z,100.00
2023-04-22T02:58:08.850Z,100.00
2023-04-22T03:00:36.831Z,100.00
2023-04-22T03:03:05.361Z,100.00
2023-04-22T03:05:33.272Z,100.00
2023-04-22T03:08:02.392Z,100.00
2023-04-22T03:10:30.224Z,100.00
2023-04-22T03:12:57.994Z,100.00
2023-04-22T03:15:25.774Z,100.00
2023-04-22T03:17:53.619Z,100.00
2023-04-22T03:20:21.829Z,100.00
2023-04-22T03:22:49.634Z,100.00
2023-04-22T03:25:18.896Z,100.00
2023-04-22T03:27:46.687Z,100.00
2023-04-22T03:30:14.624Z,100.00
2023-04-22T03:32:42.419Z,100.00
2023-04-22T03:35:10.697Z,100.00
2023-04-22T03:37:38.419Z,100.00
2023-04-22T03:40:08.479Z,100.00
2023-04-22T03:42:37.665Z,100.00
2023-04-22T03:45:06.403Z,100.00
2023-04-22T03:47:34.509Z,100.00
2023-04-22T03:50:02.252Z,100.00
2023-04-22T03:52:29.993Z,100.00
2023-04-22T03:54:58.108Z,100.00
2023-04-22T03:57:27.948Z,100.00
2023-04-22T03:59:57.134Z,100.00
2023-04-22T04:02:25.035Z,100.00
2023-04-22T04:04:53.011Z,100.00
2023-04-22T04:07:21.164Z,100.00
2023-04-22T04:09:48.897Z,100.00
2023-04-22T04:12:16.719Z,100.00
2023-04-22T04:14:44.467Z,100.00
2023-04-22T04:17:14.120Z,100.00
2023-04-22T04:19:42.319Z,100.00
2023-04-22T04:22:11.200Z,100.00
2023-04-22T04:24:41.891Z,100.00
2023-04-22T04:27:09.934Z,100.00
2023-04-22T04:29:37.936Z,100.00
2023-04-22T04:32:06.764Z,100.00
2023-04-22T04:34:37.714Z,100.00
2023-04-22T04:37:05.540Z,100.00
2023-04-22T04:39:34.001Z,100.00
2023-04-22T04:42:01.757Z,100.00
2023-04-22T04:44:31.744Z,100.00
2023-04-22T04:46:59.605Z,100.00
2023-04-22T04:49:30.710Z,100.00
2023-04-22T04:51:59.993Z,100.00
2023-04-22T04:54:27.901Z,100.00
2023-04-22T04:56:57.366Z,100.00
2023-04-22T04:59:25.307Z,100.00
2023-04-22T05:01:53.248Z,100.00
2023-04-22T05:04:21.403Z,100.00
2023-04-22T05:06:49.526Z,100.00
2023-04-22T05:09:18.677Z,100.00
2023-04-22T05:11:46.644Z,100.00
2023-04-22T05:14:14.425Z,100.00
2023-04-22T05:16:42.640Z,100.00
2023-04-22T05:19:10.388Z,100.00
2023-04-22T05:21:38.118Z,100.00
2023-04-22T05:24:06.206Z,100.00
2023-04-22T05:26:35.436Z,100.00
2023-04-22T05:29:03.195Z,100.00
2023-04-22T05:31:31.081Z,100.00
2023-04-22T05:33:58.949Z,100.00
2023-04-22T05:36:30.552Z,100.00
2023-04-22T05:38:59.115Z,100.00
2023-04-22T05:41:27.278Z,100.00
2023-04-22T05:43:56.412Z,100.00
2023-04-22T05:46:24.230Z,100.00
2023-04-22T05:48:52.137Z,100.00
2023-04-22T05:51:20.099Z,100.00
2023-04-22T05:53:47.868Z,100.00
2023-04-22T05:56:15.629Z,100.00
2023-04-22T05:58:43.401Z,100.00
2023-04-22T06:01:12.640Z,100.00
2023-04-22T06:03:40.886Z,100.00
2023-04-22T06:06:09.621Z,100.00
2023-04-22T06:08:37.449Z,100.00
2023-04-22T06:11:05.393Z,100.00
2023-04-22T06:13:33.202Z,100.00
2023-04-22T06:16:01.430Z,100.00
2023-04-22T06:18:32.339Z,100.00
2023-04-22T06:21:00.143Z,100.00
2023-04-22T06:23:28.005Z,100.00
2023-04-22T06:25:55.787Z,100.00
2023-04-22T06:28:23.598Z,100.00
2023-04-22T06:30:51.455Z,100.00
2023-04-22T06:33:19.284Z,100.00
2023-04-22T06:35:48.521Z,100.00
2023-04-22T06:38:16.598Z,100.00
2023-04-22T06:40:44.520Z,100.00
2023-04-22T06:43:12.287Z,100.00
2023-04-22T06:45:39.981Z,100.00
2023-04-22T06:48:07.746Z,100.00
2023-04-22T06:50:35.528Z,100.00
2023-04-22T06:53:04.828Z,100.00
2023-04-22T06:55:32.568Z,100.00
2023-04-22T06:58:00.419Z,100.00
2023-04-22T07:00:28.192Z,100.00
2023-04-22T07:02:56.099Z,100.00
2023-04-22T07:05:23.996Z,100.00
2023-04-22T07:07:52.044Z,100.00
2023-04-22T07:10:21.404Z,100.00
2023-04-22T07:12:49.327Z,100.00
2023-04-22T07:15:17.295Z,100.00
2023-04-22T07:17:45.056Z,100.00
2023-04-22T07:20:13.088Z,100.00
2023-04-22T07:22:40.899Z,100.00
2023-04-22T07:25:09.224Z,100.00
2023-04-22T07:27:38.714Z,100.00
2023-04-22T07:30:08.891Z,100.00
2023-04-22T07:32:36.703Z,100.00
2023-04-22T07:35:04.637Z,100.00
2023-04-22T07:37:32.416Z,100.00
2023-04-22T07:40:00.285Z,100.00
2023-04-22T07:42:28.179Z,100.00
2023-04-22T07:44:57.392Z,88.91
2023-04-22T07:47:25.165Z,91.67
2023-04-22T07:49:53.028Z,100.00
2023-04-22T07:52:21.067Z,100.00
2023-04-22T07:54:48.792Z,93.31
2023-04-22T07:57:16.602Z,96.48
2023-04-22T07:59:44.312Z,100.00
2023-04-22T08:02:13.588Z,100.00
2023-04-22T08:04:41.372Z,90.58
2023-04-22T08:07:30.399Z,87.01
2023-04-22T08:09:57.110Z,89.42
2023-04-22T08:12:25.156Z,86.35
2023-04-22T08:14:52.920Z,80.73
2023-04-22T08:17:22.957Z,84.58
2023-04-22T08:19:50.973Z,73.21
2023-04-22T08:22:18.947Z,82.55
2023-04-22T08:24:46.780Z,80.84
2023-04-22T08:27:14.614Z,78.64
2023-04-22T08:29:42.718Z,69.55
2023-04-22T08:32:10.965Z,73.35
2023-04-22T08:34:40.360Z,71.89
2023-04-22T08:37:09.122Z,71.31
2023-04-22T08:39:37.122Z,73.06
2023-04-22T08:42:05.349Z,70.76
2023-04-22T08:44:33.208Z,68.18
2023-04-22T08:47:03.060Z,69.04
2023-04-22T08:49:31.936Z,68.75
2023-04-22T08:52:01.242Z,69.01
2023-04-22T08:54:29.180Z,66.47
2023-04-22T08:56:58.085Z,58.79
2023-04-22T08:59:25.972Z,60.48
2023-04-22T09:01:56.455Z,59.38
2023-04-22T09:04:24.676Z,58.83
2023-04-22T09:06:52.520Z,59.13
2023-04-22T09:09:22.320Z,58.76
2023-04-22T09:11:50.232Z,57.87
2023-04-22T09:14:18.325Z,54.47
2023-04-22T09:16:48.882Z,53.81
2023-04-22T09:19:16.724Z,54.02
2023-04-22T09:21:45.908Z,54.68
2023-04-22T09:24:15.487Z,54.52
2023-04-22T09:26:44.716Z,54.53
2023-04-22T09:29:15.884Z,55.21
2023-04-22T09:31:43.818Z,52.40
2023-04-22T09:34:11.582Z,52.00
2023-04-22T09:36:39.458Z,51.68
2023-04-22T09:39:08.831Z,51.41
2023-04-22T09:41:38.612Z,49.33
2023-04-22T09:44:11.275Z,45.31
2023-04-22T09:46:39.083Z,48.04
2023-04-22T09:49:06.795Z,48.55
2023-04-22T09:51:34.571Z,49.76
2023-04-22T09:54:06.258Z,46.38
2023-04-22T09:56:48.556Z,42.85
2023-04-22T09:59:22.021Z,43.36
2023-04-22T10:01:51.127Z,41.72
2023-04-22T10:04:21.691Z,40.51
2023-04-22T10:06:50.007Z,39.88
2023-04-22T10:09:20.031Z,41.57
2023-04-22T10:11:48.912Z,40.98
2023-04-22T10:14:18.349Z,41.66
2023-04-22T10:16:48.208Z,40.99
2023-04-22T10:19:18.595Z,44.39
2023-04-22T10:21:48.561Z,41.01
2023-04-22T10:24:18.165Z,41.25
2023-04-22T10:26:50.742Z,41.31
2023-04-22T10:29:21.146Z,42.29
2023-04-22T10:31:57.326Z,38.00
2023-04-22T10:34:25.510Z,38.10
2023-04-22T10:36:58.767Z,35.42
2023-04-22T10:39:28.135Z,35.68
2023-04-22T10:42:05.263Z,35.74
2023-04-22T10:44:49.419Z,35.18
2023-04-22T10:47:28.197Z,33.95
2023-04-22T10:50:18.101Z,30.90
2023-04-22T10:52:49.575Z,29.80
2023-04-22T10:55:18.002Z,31.49
2023-04-22T10:57:47.597Z,33.09
2023-04-22T11:03:19.054Z,34.67
2023-04-22T11:05:47.291Z,34.65
2023-04-22T11:08:20.556Z,36.68
2023-04-22T11:10:50.276Z,37.84
2023-04-22T11:13:20.589Z,37.27
2023-04-22T11:15:51.436Z,37.14
2023-04-22T11:18:21.809Z,37.50
2023-04-22T11:20:50.942Z,37.84
2023-04-22T11:23:23.522Z,39.07
2023-04-22T11:25:56.209Z,39.02
2023-04-22T11:28:24.324Z,37.07
2023-04-22T11:30:53.772Z,36.67
2023-04-22T11:33:21.620Z,38.49
2023-04-22T11:35:51.618Z,39.71
2023-04-22T11:38:19.394Z,37.40
2023-04-22T11:40:47.835Z,35.56
2023-04-22T11:43:16.132Z,32.04
2023-04-22T11:45:43.956Z,32.84
2023-04-22T11:48:13.704Z,34.74
2023-04-22T11:50:44.115Z,36.16
2023-04-22T11:53:17.428Z,33.32
2023-04-22T11:55:47.024Z,34.02
2023-04-22T11:58:16.023Z,33.98
2023-04-22T12:00:45.385Z,34.39
2023-04-22T12:03:19.735Z,35.58
2023-04-22T12:05:48.543Z,36.13
2023-04-22T12:08:17.621Z,37.25
2023-04-22T12:10:47.425Z,39.66
2023-04-22T12:13:21.921Z,36.30
2023-04-22T12:15:54.247Z,33.07
2023-04-22T12:18:31.496Z,35.63
2023-04-22T12:21:09.238Z,36.50
2023-04-22T12:23:43.476Z,40.76
2023-04-22T12:26:11.321Z,42.23
2023-04-22T12:28:39.903Z,43.29
2023-04-22T12:31:08.591Z,44.65
2023-04-22T12:33:39.067Z,45.41
2023-04-22T12:36:07.531Z,45.36
2023-04-22T12:38:36.197Z,48.00
2023-04-22T12:41:04.281Z,47.01
2023-04-22T12:43:35.204Z,48.72
2023-04-22T12:46:03.056Z,47.15
2023-04-22T12:48:31.396Z,46.07
2023-04-22T12:51:00.790Z,46.42
2023-04-22T12:53:29.231Z,46.07
2023-04-22T12:55:58.360Z,45.68
2023-04-22T12:58:28.098Z,46.58
2023-04-22T13:00:55.895Z,45.48
2023-04-22T13:03:24.359Z,45.19
2023-04-22T13:05:53.097Z,46.24
2023-04-22T13:08:22.293Z,47.20
2023-04-22T13:10:50.430Z,48.20
2023-04-22T13:13:19.487Z,47.33
2023-04-22T13:15:50.079Z,46.84
2023-04-22T13:18:18.023Z,47.10
2023-04-22T13:20:46.291Z,48.56
2023-04-22T13:23:14.888Z,48.28
2023-04-22T13:25:44.069Z,47.88
2023-04-22T13:28:12.516Z,47.35
2023-04-22T13:30:40.405Z,48.78
2023-04-22T13:33:08.378Z,50.06
2023-04-22T13:35:36.657Z,49.81
2023-04-22T13:38:05.142Z,51.84
2023-04-22T13:40:33.104Z,50.22
2023-04-22T13:43:02.298Z,53.01
2023-04-22T13:45:30.464Z,54.51
2023-04-22T13:47:58.338Z,53.29
2023-04-22T13:50:26.153Z,53.85
2023-04-22T13:52:54.170Z,56.60
2023-04-22T13:55:21.928Z,57.35
2023-04-22T13:57:51.768Z,56.23
2023-04-22T14:00:22.042Z,55.70
2023-04-22T14:02:50.096Z,54.60
2023-04-22T14:05:18.194Z,53.38
2023-04-22T14:07:46.030Z,53.56
2023-04-22T14:10:13.994Z,53.89
2023-04-22T14:12:42.231Z,52.85
2023-04-22T14:15:11.547Z,53.37
2023-04-22T14:17:41.417Z,52.94
2023-04-22T14:20:11.138Z,53.64
2023-04-22T14:22:39.017Z,53.46
2023-04-22T14:25:08.256Z,53.79
2023-04-22T14:27:36.099Z,54.87
2023-04-22T14:30:05.005Z,55.62
2023-04-22T14:32:33.196Z,56.76
2023-04-22T14:35:03.102Z,56.29
2023-04-22T14:37:31.797Z,57.64
2023-04-22T14:39:59.712Z,58.64
2023-04-22T14:42:28.252Z,62.41
2023-04-22T14:44:56.216Z,61.26
2023-04-22T14:47:24.561Z,59.25
2023-04-22T14:49:52.600Z,63.99
2023-04-22T14:52:22.032Z,63.49
2023-04-22T14:54:51.822Z,65.03
2023-04-22T14:57:20.043Z,65.79
2023-04-22T14:59:47.774Z,74.70
2023-04-22T15:02:17.001Z,72.14
2023-04-22T15:04:45.384Z,75.28
2023-04-22T15:07:13.117Z,71.97
2023-04-22T15:09:42.619Z,72.45
2023-04-22T15:12:10.849Z,69.19
2023-04-22T15:14:39.872Z,68.74
2023-04-22T15:17:07.753Z,69.87
2023-04-22T15:19:35.604Z,83.55
2023-04-22T15:22:03.532Z,78.02
2023-04-22T15:24:31.732Z,72.46
2023-04-22T15:27:01.277Z,65.90
2023-04-22T15:29:29.416Z,67.30
2023-04-22T15:31:57.925Z,69.83
2023-04-22T15:34:26.081Z,66.36
2023-04-22T15:36:54.422Z,68.34
2023-04-22T15:39:22.444Z,69.64
2023-04-22T15:41:50.415Z,66.27
2023-04-22T15:44:19.592Z,69.62
2023-04-22T15:46:47.628Z,73.95
2023-04-22T15:49:16.644Z,63.56
2023-04-22T15:51:44.553Z,65.42
2023-04-22T15:54:13.862Z,69.66
2023-04-22T15:56:41.749Z,64.87
2023-04-22T15:59:09.636Z,64.95
2023-04-22T16:01:40.564Z,68.01
2023-04-22T16:04:08.905Z,67.63
2023-04-22T16:06:38.128Z,70.17
2023-04-22T16:09:06.060Z,67.79
2023-04-22T16:11:34.051Z,67.21
2023-04-22T16:14:01.752Z,66.60
2023-04-22T16:16:29.642Z,71.23
2023-04-22T16:18:59.542Z,71.27
2023-04-22T16:21:28.714Z,74.28
2023-04-22T16:23:56.499Z,79.94
2023-04-22T16:26:24.400Z,81.16
2023-04-22T16:28:52.212Z,90.41
2023-04-22T16:31:22.923Z,85.66
2023-04-22T16:33:51.348Z,87.37
2023-04-22T16:36:20.515Z,79.52
2023-04-22T16:38:48.300Z,77.35
2023-04-22T16:41:16.247Z,80.65
2023-04-22T16:43:44.133Z,79.65
2023-04-22T16:46:11.941Z,83.48
2023-04-22T16:48:39.805Z,82.12
2023-04-22T16:51:07.731Z,96.17
2023-04-22T16:53:37.211Z,97.72
2023-04-22T16:56:05.849Z,94.42
2023-04-22T16:58:33.639Z,98.72
2023-04-22T17:01:01.532Z,100.00
2023-04-22T17:03:29.559Z,100.00
2023-04-22T17:05:57.450Z,100.00
2023-04-22T17:08:25.352Z,100.00
2023-04-22T17:10:54.540Z,100.00
2023-04-22T17:13:22.354Z,100.00
2023-04-22T17:15:50.333Z,100.00
2023-04-22T17:18:18.175Z,100.00
2023-04-22T17:20:46.073Z,100.00
2023-04-22T17:23:13.916Z,100.00
2023-04-22T17:25:41.659Z,100.00
2023-04-22T17:28:11.542Z,100.00
2023-04-22T17:30:39.609Z,100.00
2023-04-22T17:33:07.447Z,100.00
2023-04-22T17:35:35.233Z,100.00
2023-04-22T17:38:03.008Z,100.00
2023-04-22T17:40:30.953Z,100.00
2023-04-22T17:42:58.839Z,100.00
2023-04-22T17:45:28.049Z,100.00
2023-04-22T17:47:55.821Z,100.00
2023-04-22T17:50:23.912Z,100.00
2023-04-22T17:52:51.819Z,100.00
2023-04-22T17:55:19.961Z,100.00
2023-04-22T17:57:47.738Z,100.00
2023-04-22T18:00:17.990Z,100.00
2023-04-22T18:02:47.757Z,100.00
2023-04-22T18:05:15.702Z,100.00
2023-04-22T18:07:43.460Z,100.00
2023-04-22T18:10:12.733Z,100.00
2023-04-22T18:12:41.293Z,100.00
2023-04-22T18:15:09.838Z,100.00
2023-04-22T18:17:37.636Z,100.00
2023-04-22T18:20:17.443Z,100.00
2023-04-22T18:22:47.532Z,100.00
2023-04-22T18:25:15.433Z,100.00
2023-04-22T18:27:43.149Z,100.00
2023-04-22T18:30:11.545Z,100.00
2023-04-22T18:32:39.665Z,100.00
2023-04-22T18:35:10.512Z,100.00
2023-04-22T18:37:38.322Z,100.00
2023-04-22T18:40:07.387Z,100.00
2023-04-22T18:42:35.331Z,100.00
2023-04-22T18:45:04.873Z,100.00
2023-04-22T18:47:33.265Z,100.00
2023-04-22T18:50:01.338Z,100.00
2023-04-22T18:52:30.585Z,100.00
2023-04-22T18:54:58.426Z,100.00
2023-04-22T18:57:26.468Z,100.00
2023-04-22T18:59:54.994Z,100.00
2023-04-22T19:02:22.927Z,100.00
2023-04-22T19:04:51.011Z,100.00
2023-04-22T19:07:18.799Z,100.00
2023-04-22T19:09:47.958Z,100.00
2023-04-22T19:12:18.825Z,100.00
2023-04-22T19:14:47.807Z,100.00
2023-04-22T19:17:15.670Z,100.00
2023-04-22T19:19:44.353Z,100.00
2023-04-22T19:22:13.263Z,100.00
2023-04-22T19:24:41.139Z,100.00
2023-04-22T19:27:12.522Z,100.00
2023-04-22T19:29:41.580Z,100.00
2023-04-22T19:32:10.958Z,100.00
2023-04-22T19:34:39.788Z,100.00
2023-04-22T19:37:08.222Z,100.00
2023-04-22T19:39:36.425Z,100.00
2023-04-22T19:42:04.329Z,100.00
2023-04-22T19:44:33.671Z,100.00
2023-04-22T19:47:01.920Z,100.00
2023-04-22T19:49:32.420Z,100.00
2023-04-22T19:52:02.847Z,100.00
2023-04-22T19:54:31.406Z,100.00
2023-04-22T19:56:59.677Z,100.00
2023-04-22T19:59:31.645Z,100.00
2023-04-22T20:02:01.463Z,100.00
2023-04-22T20:04:29.965Z,100.00
2023-04-22T20:07:00.778Z,100.00
2023-04-22T20:09:34.174Z,100.00
2023-04-22T20:12:02.807Z,100.00
2023-04-22T20:14:31.906Z,100.00
2023-04-22T20:17:01.620Z,100.00
2023-04-22T20:19:30.775Z,100.00
2023-04-22T20:21:59.731Z,100.00
2023-04-22T20:24:29.173Z,100.00
2023-04-22T20:26:57.164Z,100.00
2023-04-22T20:29:25.560Z,100.00
2023-04-22T20:31:55.576Z,100.00
2023-04-22T20:34:26.084Z,100.00
2023-04-22T20:36:54.869Z,100.00
2023-04-22T20:39:23.803Z,100.00
2023-04-22T20:41:55.641Z,100.00
2023-04-22T20:44:23.536Z,100.00
2023-04-22T20:46:51.509Z,100.00
2023-04-22T20:49:19.350Z,100.00
2023-04-22T20:51:48.514Z,100.00
2023-04-22T20:54:27.939Z,100.00
2023-04-22T20:56:57.766Z,100.00
2023-04-22T20:59:25.607Z,100.00
2023-04-22T21:01:54.828Z,100.00
2023-04-22T21:04:23.865Z,100.00
2023-04-22T21:06:54.597Z,100.00
2023-04-22T21:09:24.993Z,100.00
2023-04-22T21:11:53.461Z,100.00
2023-04-22T21:14:22.268Z,100.00
2023-04-22T21:16:57.886Z,100.00
2023-04-22T21:19:27.214Z,100.00
2023-04-22T21:21:57.731Z,100.00
2023-04-22T21:24:26.219Z,100.00
2023-04-22T21:26:54.824Z,100.00
2023-04-22T21:29:23.042Z,100.00
2023-04-22T21:32:04.943Z,100.00
2023-04-22T21:34:36.282Z,100.00
2023-04-22T21:37:06.401Z,100.00
2023-04-22T21:39:34.214Z,100.00
2023-04-22T21:42:07.447Z,100.00
2023-04-22T21:44:36.307Z,100.00
2023-04-22T21:47:04.519Z,100.00
2023-04-22T21:49:32.518Z,100.00
2023-04-22T21:52:01.093Z,100.00
2023-04-22T21:54:30.704Z,100.00
2023-04-22T21:56:58.754Z,100.00
2023-04-22T21:59:26.573Z,100.00
2023-04-22T22:01:54.492Z,100.00
2023-04-22T22:04:22.440Z,100.00
2023-04-22T22:06:50.358Z,100.00
2023-04-22T22:09:18.182Z,100.00
2023-04-22T22:11:47.385Z,100.00
2023-04-22T22:14:15.563Z,100.00
2023-04-22T22:16:43.981Z,100.00
2023-04-22T22:19:12.253Z,100.00
2023-04-22T22:21:40.414Z,100.00
2023-04-22T22:24:09.461Z,100.00
2023-04-22T22:26:37.454Z,100.00
2023-04-22T22:29:06.514Z,100.00
2023-04-22T22:31:34.341Z,100.00
2023-04-22T22:34:02.088Z,100.00
2023-04-22T22:36:29.804Z,100.00
2023-04-22T22:38:57.680Z,100.00
2023-04-22T22:41:25.510Z,100.00
2023-04-22T22:43:53.326Z,100.00
2023-04-22T22:46:22.591Z,100.00
2023-04-22T22:48:50.675Z,100.00
2023-04-22T22:51:18.783Z,100.00
2023-04-22T22:53:46.761Z,100.00
2023-04-22T22:56:15.400Z,100.00
2023-04-22T22:58:43.212Z,100.00
2023-04-22T23:01:11.060Z,100.00
2023-04-22T23:03:40.400Z,100.00
2023-04-22T23:06:08.810Z,100.00
2023-04-22T23:08:36.618Z,100.00
2023-04-22T23:11:04.462Z,100.00
2023-04-22T23:13:32.324Z,100.00
2023-04-22T23:16:00.656Z,100.00
2023-04-22T23:18:29.737Z,100.00
2023-04-22T23:21:01.545Z,100.00
2023-04-22T23:23:30.175Z,100.00
2023-04-22T23:26:00.779Z,100.00
2023-04-22T23:28:29.182Z,100.00
2023-04-22T23:30:57.157Z,100.00
2023-04-22T23:33:26.245Z,100.00
2023-04-22T23:35:54.281Z,100.00
2023-04-22T23:38:24.087Z,100.00
2023-04-22T23:40:51.873Z,100.00
2023-04-22T23:43:19.646Z,100.00
2023-04-22T23:45:47.368Z,100.00
2023-04-22T23:48:15.129Z,100.00
2023-04-22T23:50:43.002Z,100.00
2023-04-22T23:53:10.758Z,100.00
2023-04-22T23:55:41.086Z,100.00
2023-04-22T23:58:09.120Z,100.00
